x

Buoy B01 - Western Maine Shelf (44030) Wave Buoy

12:04 - Thu 17th Apr 2014 All times are EDT. -4 hours from GMT.

  • Sig Wave height 4.6ft
  • Peak Period 11s
  • Wind
    16mph, 20mph gusts
  • Sea Temp 40°f
  • Ar Temp 33°f
  • Sea Pressure 1036.4mb
  • Buoy B01 - Western Maine Shelf
  • Buoy B01 - Western Maine Shelf

More Historic Weather Station data

Upgrade to MSW Pro to gain access to the past 30 days of data for over 8000 Wavebouys and Weather Stations around the globe.

Join Pro

Comparision Forecast

View Surf forecast
   
Qui 04/17 12:04 4.5ft 11s 16 20 mph 1036.4mb 40f 33f
Qua 04/16 11:04 4ft 11s 18 22 mph 1035.5mb 40f 34f
10:04 4.5ft 11s 16 20 mph 1034.8mb 40f 35f
9:04  -   -  16 20 mph 1033.9mb 40f 36f
8:04 5ft 11s 18 20 mph 1032.4mb 40f 37f
7:04 6.5ft 11s 16 18 mph 1030.8mb 40f 38f
6:04 5.5ft 11s 16 20 mph 1030.1mb 40f 39f
5:04  -   -  16 18 mph 1029mb 40f 39f
4:04 5.5ft 11s 13 16 mph 1027.7mb 40f 39f
3:04 5.5ft 11s 16 18 mph 1026.9mb 40f 38f
2:04 5ft 11s 16 20 mph 1026mb 40f 36f
1:04 4.5ft 11s 13 18 mph 1025mb 40f 36f
12:04 4.5ft 11s 13 18 mph 1023.7mb 40f 34f
11:04 6ft 11s 13 18 mph 1022.7mb 39f 33f
10:04 5.5ft 11s 18 20 mph 1021.6mb 39f 33f
9:04  -   -  20 25 mph 1020.2mb 39f 32f
8:04 5ft 11s 25 31 mph 1018.1mb 39f 31f
7:04 5ft 8s 22 27 mph 1014.9mb 39f 32f
6:04 5ft 8s 27 34 mph - 39f 32f
5:04 4.5ft 8s 25 29 mph 1010.8mb 38f 32f
4:04 5ft 8s 22 29 mph 1009.2mb 39f 34f
3:04 5.5ft 8s 20 22 mph 1006.7mb 39f 37f
2:04 6ft 8s 22 27 mph 1005.8mb 39f 38f
1:04 6ft 8s 25 31 mph 1004.6mb 40f 41f
12:04 6.5ft 8s 25 31 mph 1003.3mb 40f 43f
Ter 04/15 11:04 8ft 8s 11 16 mph 1001.8mb 40f 45f
10:04 7.5ft 8s 20 25 mph 1000.6mb 40f 45f
9:04 8ft 8s 22 25 mph 1000mb 40f 46f
8:04 9.5ft 8s 25 29 mph 1000.4mb 40f 47f
7:04 8ft 8s 25 27 mph 1000.6mb 40f 48f
6:04 9ft 8s 25 29 mph 1000.6mb 40f 47f
5:04 8ft 6s 27 34 mph 1001mb 41f 48f
4:04 5.5ft 5s 22 27 mph 1001.8mb 41f 47f
3:04 7ft 6s 25 29 mph 1002.5mb 41f 48f
2:04 6ft 6s 25 27 mph 1003.6mb 41f 47f
1:04 5ft 6s 20 25 mph 1004.3mb 41f 47f
12:04 5ft 6s 22 27 mph 1005.5mb 41f 47f
11:04 6ft 6s 20 25 mph 1006.6mb 41f 46f
10:04 5ft 6s 18 20 mph 1007.6mb 41f 45f
9:04 5ft 6s 16 18 mph 1008.3mb 41f 45f
8:04 5ft 6s 18 22 mph 1008.9mb 41f 45f
7:04 4.5ft 6s 20 22 mph 1009.4mb 41f 46f
6:04 4.5ft 6s 20 22 mph 1009.5mb 41f 47f
5:04 5ft 6s 18
mph
1009.9mb 41f 46f
4:04 4.5ft 6s 18 20 mph 1009.7mb 41f 47f
3:04 5ft 6s 16 18 mph 1010mb 41f 45f
1:04 4.5ft 6s 16 20 mph 1010.3mb 40f 46f
12:04 5.5ft 6s 18 20 mph 1010.5mb 40f 45f
Seg 04/14 11:04 5.5ft 6s 18 20 mph 1010.7mb 40f 46f
10:04 5ft 6s 20 22 mph 1010.7mb 40f 46f
9:04 5ft 5s 20 25 mph 1010.8mb 40f 47f
8:04 5.5ft 6s 22 27 mph 1010.1mb 40f 49f
7:04 5ft 6s 20 22 mph 1010mb 40f 48f
6:04 5ft 6s 22 25 mph 1009.6mb 40f 49f
5:04 4.5ft 5s 20 22 mph 1010mb 41f 49f
4:04 5ft 5s 20 22 mph 1010.4mb 40f 49f
3:04 5ft 6s 20 22 mph 1010.4mb 41f 50f
2:04 4.5ft 5s 20 25 mph 1010.7mb 41f 50f
1:04 5ft 5s 20 22 mph 1011.1mb 41f 49f
12:04 5ft 6s 20 22 mph 1011.9mb 41f 48f
11:04 3.5ft 6s 4 9 mph 1013mb 41f 46f
10:04 3ft 5s 2 4 mph 1013.8mb 41f 44f
9:04 3ft 5s  -  2 mph 1013.7mb 40f 43f
8:04 3.5ft 5s 2
mph
1014.3mb 40f 42f
7:04 3ft 5s 2
mph
1014.3mb 40f 40f
6:04 4ft 5s 2
mph
1014.6mb 40f 39f
5:04 3.5ft 5s 2 4 mph 1014.9mb 40f 40f
4:04 4ft 5s 2 4 mph 1015.1mb 40f 40f
3:04 3.5ft 5s 2 4 mph 1015.3mb 40f 40f
2:04 3.5ft 5s 2
mph
1015.3mb 40f 40f
1:04 3.5ft 6s 2 4 mph 1015.8mb 40f 40f
12:04 4ft 5s 7 9 mph 1016.3mb 40f 40f
Dom 04/13 11:04 3.5ft 5s 4
mph
1016.2mb 40f 40f
10:04 4ft 5s 9 11 mph 1017mb 40f 41f
9:04 3.5ft 5s 9
mph
1016.8mb 40f 41f
8:04 4.5ft 5s 11 13 mph 1017.5mb 40f 41f
7:04 3.5ft 5s 11
mph
1017.5mb 40f 41f
6:04 3.5ft 5s 9 11 mph 1018.5mb 40f 41f
5:04 3ft 5s 9 11 mph 1019.2mb 40f 41f
4:04 3ft 8s 7 9 mph 1019.9mb 40f 41f
3:04 3.5ft 5s 7
mph
1021.6mb 40f 41f
2:04 3.5ft 5s 7 9 mph 1022.1mb 40f 40f
1:04 4ft 5s 13 18 mph 1022.6mb 40f 40f
12:04 4ft 4s 16 20 mph 1023.4mb 40f 40f
11:04 3.5ft 8s 16 18 mph 1024.4mb 40f 40f
10:04 3.5ft 6s 13 16 mph 1025mb 40f 41f
9:04 3.5ft 8s 16 20 mph 1024.4mb 40f 41f
8:04 3ft 8s 13 16 mph 1023.9mb 40f 41f
7:04 3ft 8s 9
mph
1023.7mb 40f 42f
6:04 3ft 11s 7
mph
1023.9mb 40f 42f